Time;durP1;ratioP1;P1;durP2;ratioP2;P2;SDS_P1;SDS_P2;PMS_P1;PMS_P2;Temp;Humidity;BMP_temperature;BMP_pressure;BME280_temperature;BME280_humidity;BME280_pressure;Samples;Min_cycle;Max_cycle;Signal;HPM_P1;HPM_P2
2022/01/06 00:00:09;;;;;;;9.02;2.03;;;;;;;;;;5069142;28;20559;-76
2022/01/06 00:02:35;;;;;;;10.93;2.35;;;;;;;;;;5074389;28;20033;-77
2022/01/06 00:05:01;;;;;;;8.52;1.55;;;;;;;;;;5074932;28;20029;-76
2022/01/06 00:07:28;;;;;;;10.13;1.70;;;;;;;;;;5073265;28;20040;-76
2022/01/06 00:13:24;;;;;;;5.88;1.35;;;;;;;;;;5067575;28;20028;-76
2022/01/06 00:18:29;;;;;;;9.77;2.60;;;;;;;;;;5070801;28;20045;-75
2022/01/06 00:23:42;;;;;;;9.55;1.55;;;;;;;;;;5074211;28;20040;-76
2022/01/06 00:26:08;;;;;;;8.23;1.77;;;;;;;;;;5073710;28;20068;-76
2022/01/06 00:28:35;;;;;;;11.93;2.17;;;;;;;;;;5063151;28;20040;-76
2022/01/06 00:31:02;;;;;;;14.43;2.53;;;;;;;;;;5074720;28;20394;-76
2022/01/06 00:33:29;;;;;;;9.25;1.85;;;;;;;;;;5073857;28;20093;-76
2022/01/06 00:35:55;;;;;;;12.35;1.58;;;;;;;;;;5069477;28;20032;-76
2022/01/06 00:38:24;;;;;;;10.90;1.67;;;;;;;;;;5073544;28;20500;-76
2022/01/06 00:40:50;;;;;;;10.57;1.98;;;;;;;;;;5074643;28;20489;-76
2022/01/06 00:43:16;;;;;;;13.52;2.67;;;;;;;;;;5072530;28;20047;-76
2022/01/06 00:45:42;;;;;;;13.18;1.75;;;;;;;;;;5072713;28;20075;-76
2022/01/06 00:48:27;;;;;;;9.32;1.83;;;;;;;;;;5066383;28;20186;-76
2022/01/06 00:50:53;;;;;;;18.10;1.95;;;;;;;;;;5074305;28;20522;-76
2022/01/06 00:53:19;;;;;;;12.05;1.98;;;;;;;;;;5073337;28;20043;-76
2022/01/06 00:55:45;;;;;;;10.25;2.03;;;;;;;;;;5067899;28;20618;-76
2022/01/06 00:58:11;;;;;;;13.13;2.40;;;;;;;;;;5071495;28;20483;-76
2022/01/06 01:00:41;;;;;;;13.63;2.20;;;;;;;;;;5073393;28;20036;-76
2022/01/06 01:03:10;;;;;;;12.33;1.87;;;;;;;;;;5072924;28;20120;-76
2022/01/06 01:05:36;;;;;;;14.07;2.45;;;;;;;;;;5072854;28;20298;-77
2022/01/06 01:08:02;;;;;;;13.60;2.70;;;;;;;;;;5073043;28;20032;-76
2022/01/06 01:10:28;;;;;;;14.55;2.45;;;;;;;;;;5073537;28;20116;-76
2022/01/06 01:12:54;;;;;;;15.80;2.35;;;;;;;;;;5073064;28;20098;-76
2022/01/06 01:15:20;;;;;;;12.93;2.28;;;;;;;;;;5073357;28;20437;-77
2022/01/06 01:17:48;;;;;;;19.08;3.30;;;;;;;;;;5072080;28;20049;-76
2022/01/06 01:20:20;;;;;;;15.93;2.22;;;;;;;;;;5074044;28;20094;-76
2022/01/06 01:22:46;;;;;;;18.27;2.90;;;;;;;;;;5073325;28;20042;-76
2022/01/06 01:25:13;;;;;;;21.30;2.50;;;;;;;;;;5072242;28;20494;-77
2022/01/06 01:27:42;;;;;;;13.35;2.72;;;;;;;;;;5073291;28;20115;-76
2022/01/06 01:30:11;;;;;;;18.30;2.63;;;;;;;;;;5054153;28;20091;-76
2022/01/06 01:32:38;;;;;;;18.25;2.67;;;;;;;;;;5072960;28;20154;-76
2022/01/06 01:35:07;;;;;;;12.10;2.50;;;;;;;;;;5073553;28;20037;-76
2022/01/06 01:37:33;;;;;;;16.52;2.47;;;;;;;;;;5063870;28;20041;-76
2022/01/06 01:39:59;;;;;;;14.82;2.28;;;;;;;;;;5057857;28;20044;-77
2022/01/06 01:42:26;;;;;;;18.40;3.15;;;;;;;;;;5070775;28;20803;-77
2022/01/06 01:44:52;;;;;;;18.30;3.10;;;;;;;;;;5059156;28;20032;-76
2022/01/06 01:50:12;;;;;;;14.50;2.53;;;;;;;;;;5062973;28;20482;-76
2022/01/06 01:52:39;;;;;;;16.25;2.55;;;;;;;;;;5066152;28;20418;-76
2022/01/06 01:55:05;;;;;;;17.08;2.70;;;;;;;;;;5064572;28;20041;-77
2022/01/06 01:57:31;;;;;;;13.75;2.45;;;;;;;;;;5061948;28;20044;-76
2022/01/06 01:59:57;;;;;;;14.88;2.65;;;;;;;;;;5059038;28;20032;-76
2022/01/06 02:02:23;;;;;;;18.20;2.17;;;;;;;;;;5069019;28;20452;-76
2022/01/06 02:04:52;;;;;;;23.27;2.67;;;;;;;;;;5072843;28;20067;-76
2022/01/06 02:07:18;;;;;;;16.02;3.05;;;;;;;;;;5068397;28;20040;-77
2022/01/06 02:09:44;;;;;;;16.30;3.45;;;;;;;;;;5065162;28;20553;-76
2022/01/06 02:12:10;;;;;;;22.90;2.72;;;;;;;;;;5071524;28;20132;-76
2022/01/06 02:14:38;;;;;;;14.35;2.67;;;;;;;;;;5071130;28;20131;-76
2022/01/06 02:17:04;;;;;;;15.25;2.67;;;;;;;;;;5071826;28;20036;-76
2022/01/06 02:19:30;;;;;;;13.75;2.80;;;;;;;;;;5056540;28;20116;-76
2022/01/06 02:21:56;;;;;;;16.15;2.88;;;;;;;;;;5070035;28;20068;-76
2022/01/06 02:24:22;;;;;;;20.27;2.55;;;;;;;;;;5072129;28;20584;-76
2022/01/06 02:26:48;;;;;;;17.98;3.05;;;;;;;;;;5073762;28;20040;-76
2022/01/06 02:29:14;;;;;;;16.23;2.50;;;;;;;;;;5058621;28;20041;-76
2022/01/06 02:31:41;;;;;;;17.42;2.75;;;;;;;;;;5052599;28;20111;-76
2022/01/06 02:34:08;;;;;;;18.23;3.38;;;;;;;;;;5069802;28;20032;-76
2022/01/06 02:36:34;;;;;;;20.15;3.03;;;;;;;;;;5073634;28;20462;-76
2022/01/06 02:39:00;;;;;;;23.10;3.63;;;;;;;;;;5071786;28;20123;-76
2022/01/06 02:41:26;;;;;;;16.27;2.70;;;;;;;;;;5072046;28;20120;-76
2022/01/06 02:43:52;;;;;;;14.18;2.80;;;;;;;;;;5071790;28;20377;-76
2022/01/06 02:46:18;;;;;;;16.08;2.78;;;;;;;;;;5072105;28;20477;-76
2022/01/06 02:48:44;;;;;;;14.95;3.60;;;;;;;;;;5067913;28;20068;-76
2022/01/06 02:51:10;;;;;;;14.18;2.92;;;;;;;;;;5071454;28;20551;-76
2022/01/06 02:53:36;;;;;;;20.92;2.90;;;;;;;;;;5071197;28;20422;-76
2022/01/06 02:56:02;;;;;;;23.60;3.85;;;;;;;;;;5069288;28;20089;-76
2022/01/06 02:58:28;;;;;;;18.65;3.13;;;;;;;;;;5062744;28;20032;-75
2022/01/06 03:00:54;;;;;;;21.38;3.13;;;;;;;;;;5054635;28;20132;-75
2022/01/06 03:03:20;;;;;;;19.08;3.03;;;;;;;;;;5062609;28;20036;-75
2022/01/06 03:05:46;;;;;;;20.17;3.60;;;;;;;;;;5068988;28;20101;-75
2022/01/06 03:08:12;;;;;;;20.95;2.90;;;;;;;;;;5064292;28;20406;-75
2022/01/06 03:10:42;;;;;;;21.67;3.45;;;;;;;;;;5068194;28;20044;-75
2022/01/06 03:13:08;;;;;;;19.58;2.78;;;;;;;;;;5071281;28;20044;-75
2022/01/06 03:15:34;;;;;;;12.65;2.38;;;;;;;;;;5070489;28;20043;-75
2022/01/06 03:18:00;;;;;;;17.70;2.80;;;;;;;;;;5067710;28;20033;-75
2022/01/06 03:20:29;;;;;;;17.38;3.03;;;;;;;;;;5070286;28;20112;-75
2022/01/06 03:22:55;;;;;;;17.60;3.15;;;;;;;;;;5071495;28;20040;-76
2022/01/06 03:25:22;;;;;;;19.52;3.00;;;;;;;;;;5071376;28;20037;-76
2022/01/06 03:27:48;;;;;;;11.18;2.50;;;;;;;;;;5068542;28;20415;-76
2022/01/06 03:30:15;;;;;;;16.05;3.15;;;;;;;;;;5066128;28;20037;-75
2022/01/06 03:32:41;;;;;;;14.25;2.30;;;;;;;;;;5071377;28;20071;-75
2022/01/06 03:35:09;;;;;;;14.90;2.40;;;;;;;;;;5070674;28;20111;-76
2022/01/06 03:37:35;;;;;;;15.98;3.42;;;;;;;;;;5070975;28;20044;-75
2022/01/06 03:40:04;;;;;;;19.70;2.85;;;;;;;;;;5051602;28;20037;-76
2022/01/06 03:42:31;;;;;;;16.13;2.78;;;;;;;;;;5067894;28;20049;-75
2022/01/06 03:44:57;;;;;;;15.20;2.70;;;;;;;;;;5063576;28;20045;-76
2022/01/06 03:47:23;;;;;;;15.70;3.42;;;;;;;;;;5068369;28;20048;-75
2022/01/06 03:49:49;;;;;;;17.05;2.92;;;;;;;;;;5057228;28;20116;-75
2022/01/06 03:52:15;;;;;;;17.17;2.95;;;;;;;;;;5064847;28;20032;-75
2022/01/06 03:54:41;;;;;;;14.90;2.47;;;;;;;;;;5069706;28;20094;-75
2022/01/06 03:57:07;;;;;;;19.35;3.05;;;;;;;;;;5067278;28;20102;-75
2022/01/06 03:59:33;;;;;;;16.30;2.85;;;;;;;;;;5054657;28;20123;-75
2022/01/06 04:01:59;;;;;;;24.15;3.35;;;;;;;;;;5057000;28;20116;-75
2022/01/06 04:04:25;;;;;;;17.77;3.10;;;;;;;;;;5071294;28;20064;-75
2022/01/06 04:06:51;;;;;;;15.85;2.55;;;;;;;;;;5070729;28;20520;-75
2022/01/06 04:09:17;;;;;;;20.67;2.83;;;;;;;;;;5065459;28;20429;-75
2022/01/06 04:11:43;;;;;;;10.82;2.30;;;;;;;;;;5071078;28;20398;-75
2022/01/06 04:14:09;;;;;;;16.48;2.35;;;;;;;;;;5068528;28;20047;-74
2022/01/06 04:16:38;;;;;;;15.48;2.42;;;;;;;;;;5067857;28;20047;-74
2022/01/06 04:19:04;;;;;;;15.27;2.45;;;;;;;;;;5065575;28;20059;-74
2022/01/06 04:21:30;;;;;;;17.02;2.72;;;;;;;;;;5071521;28;20482;-74
2022/01/06 04:23:56;;;;;;;16.45;2.80;;;;;;;;;;5074700;28;20040;-74
2022/01/06 04:26:22;;;;;;;18.85;2.75;;;;;;;;;;5074755;28;20577;-74
2022/01/06 04:28:47;;;;;;;10.60;2.30;;;;;;;;;;5072801;28;20040;-74
2022/01/06 04:31:13;;;;;;;20.55;2.90;;;;;;;;;;5055021;28;20055;-74
2022/01/06 04:33:40;;;;;;;12.88;2.58;;;;;;;;;;5071381;28;20068;-74
2022/01/06 04:36:06;;;;;;;15.50;2.22;;;;;;;;;;5072591;28;20055;-74
2022/01/06 04:38:33;;;;;;;12.93;2.28;;;;;;;;;;5070579;28;20039;-74
2022/01/06 04:41:00;;;;;;;13.07;1.95;;;;;;;;;;5054654;28;20041;-74
2022/01/06 04:43:26;;;;;;;15.85;2.17;;;;;;;;;;5072311;28;20044;-74
2022/01/06 04:45:52;;;;;;;11.75;1.95;;;;;;;;;;5071030;28;20043;-74
2022/01/06 04:48:17;;;;;;;10.40;2.38;;;;;;;;;;5065951;28;20542;-74
2022/01/06 04:50:43;;;;;;;16.35;3.05;;;;;;;;;;5074551;28;20039;-74
2022/01/06 04:53:09;;;;;;;14.52;2.47;;;;;;;;;;5073360;28;20440;-74
2022/01/06 04:55:35;;;;;;;15.10;2.08;;;;;;;;;;5072415;28;20148;-73
2022/01/06 04:58:01;;;;;;;11.65;2.20;;;;;;;;;;5088464;22;20033;-65
2022/01/06 05:00:27;;;;;;;14.23;2.30;;;;;;;;;;5070492;28;20036;-65
2022/01/06 05:02:53;;;;;;;7.78;1.85;;;;;;;;;;5063474;28;20460;-65
2022/01/06 05:05:19;;;;;;;11.15;2.20;;;;;;;;;;5071817;28;20036;-65
2022/01/06 05:07:45;;;;;;;12.02;2.25;;;;;;;;;;5073932;28;20075;-65
2022/01/06 05:10:11;;;;;;;12.15;2.38;;;;;;;;;;5073972;28;20068;-65
2022/01/06 05:12:41;;;;;;;13.20;2.15;;;;;;;;;;5063306;28;20119;-65
2022/01/06 05:15:07;;;;;;;14.75;2.45;;;;;;;;;;5053203;28;20037;-65
2022/01/06 05:17:33;;;;;;;16.58;2.35;;;;;;;;;;5065330;28;20048;-65
2022/01/06 05:19:59;;;;;;;18.20;2.50;;;;;;;;;;5051735;28;20033;-66
2022/01/06 05:22:26;;;;;;;15.25;2.70;;;;;;;;;;5041130;28;20494;-66
2022/01/06 05:24:53;;;;;;;13.25;2.38;;;;;;;;;;5033990;28;20050;-66
2022/01/06 05:27:19;;;;;;;16.50;2.50;;;;;;;;;;5050288;28;20053;-66
2022/01/06 05:29:45;;;;;;;11.93;2.40;;;;;;;;;;5051113;28;20052;-67
2022/01/06 05:32:11;;;;;;;15.93;2.35;;;;;;;;;;5053675;28;20037;-66
2022/01/06 05:34:37;;;;;;;16.20;2.50;;;;;;;;;;5051055;28;20045;-67
2022/01/06 05:37:03;;;;;;;15.48;2.33;;;;;;;;;;5058577;28;20113;-66
2022/01/06 05:39:29;;;;;;;10.88;2.13;;;;;;;;;;5055691;28;20102;-66
2022/01/06 05:41:56;;;;;;;14.50;2.42;;;;;;;;;;5052733;28;20033;-66
2022/01/06 05:44:22;;;;;;;13.10;2.33;;;;;;;;;;5052745;28;20033;-66
2022/01/06 05:46:48;;;;;;;16.27;2.75;;;;;;;;;;5055133;28;20048;-66
2022/01/06 05:49:14;;;;;;;17.25;2.53;;;;;;;;;;5059432;28;20114;-66
2022/01/06 05:51:40;;;;;;;13.52;2.40;;;;;;;;;;5052668;28;20083;-66
2022/01/06 05:54:06;;;;;;;9.88;2.08;;;;;;;;;;5053112;28;20047;-66
2022/01/06 05:56:32;;;;;;;14.25;2.03;;;;;;;;;;5051564;28;20041;-66
2022/01/06 05:58:58;;;;;;;10.88;2.35;;;;;;;;;;5069540;28;20037;-65
2022/01/06 06:01:24;;;;;;;9.65;2.13;;;;;;;;;;5057363;28;20447;-66
2022/01/06 06:03:50;;;;;;;15.82;2.65;;;;;;;;;;5052163;28;20078;-66
2022/01/06 06:06:16;;;;;;;9.27;2.58;;;;;;;;;;5052202;28;20045;-66
2022/01/06 06:08:42;;;;;;;11.38;1.88;;;;;;;;;;5059597;28;20502;-65
2022/01/06 06:11:09;;;;;;;14.45;2.38;;;;;;;;;;5052038;28;20052;-66
2022/01/06 06:13:35;;;;;;;10.60;2.00;;;;;;;;;;5038176;28;20043;-66
2022/01/06 06:16:00;;;;;;;13.27;2.17;;;;;;;;;;5044415;28;20120;-66
2022/01/06 06:18:26;;;;;;;13.02;2.50;;;;;;;;;;5059221;28;20041;-66
2022/01/06 06:20:52;;;;;;;14.27;2.45;;;;;;;;;;5052667;28;20555;-66
2022/01/06 06:23:18;;;;;;;16.58;2.30;;;;;;;;;;5051906;28;20414;-66
2022/01/06 06:25:44;;;;;;;11.13;2.20;;;;;;;;;;5051111;28;20045;-66
2022/01/06 06:28:10;;;;;;;13.55;2.42;;;;;;;;;;5041461;28;20040;-66
2022/01/06 06:30:36;;;;;;;9.75;1.88;;;;;;;;;;5052439;28;20066;-66
2022/01/06 06:33:03;;;;;;;12.43;2.10;;;;;;;;;;5051026;28;20079;-66
2022/01/06 06:35:29;;;;;;;9.25;1.85;;;;;;;;;;5050172;28;20051;-66
2022/01/06 06:37:55;;;;;;;10.48;1.77;;;;;;;;;;5066255;28;20037;-66
2022/01/06 06:40:23;;;;;;;11.38;1.70;;;;;;;;;;5049773;28;20052;-66
2022/01/06 06:42:49;;;;;;;8.95;1.88;;;;;;;;;;5045870;28;20072;-65
2022/01/06 06:45:15;;;;;;;13.90;2.10;;;;;;;;;;5051229;28;20033;-66
2022/01/06 06:47:41;;;;;;;14.48;2.30;;;;;;;;;;5054556;28;20041;-66
2022/01/06 06:50:08;;;;;;;12.57;1.98;;;;;;;;;;5052723;28;20384;-66
2022/01/06 06:52:34;;;;;;;9.25;2.13;;;;;;;;;;5049892;28;20124;-66
2022/01/06 06:55:00;;;;;;;11.75;2.15;;;;;;;;;;5051871;28;20447;-65
2022/01/06 06:57:26;;;;;;;14.70;2.13;;;;;;;;;;5057581;28;20075;-65
2022/01/06 06:59:52;;;;;;;16.63;2.35;;;;;;;;;;5051910;28;20086;-66
2022/01/06 07:02:19;;;;;;;12.25;2.25;;;;;;;;;;5051982;28;20044;-66
2022/01/06 07:04:45;;;;;;;9.63;2.05;;;;;;;;;;5050951;28;20041;-65
2022/01/06 07:07:11;;;;;;;11.65;2.08;;;;;;;;;;5050972;28;20032;-65
2022/01/06 07:09:37;;;;;;;11.20;2.00;;;;;;;;;;5061154;28;20045;-66
2022/01/06 07:12:03;;;;;;;10.10;2.00;;;;;;;;;;5049065;28;20037;-65
2022/01/06 07:14:29;;;;;;;13.63;2.53;;;;;;;;;;5051321;28;20402;-65
2022/01/06 07:16:55;;;;;;;13.25;2.40;;;;;;;;;;5053241;28;20041;-65
2022/01/06 07:19:21;;;;;;;15.20;2.22;;;;;;;;;;5054148;28;20029;-65
2022/01/06 07:21:47;;;;;;;8.35;2.17;;;;;;;;;;5050651;28;20040;-65
2022/01/06 07:24:13;;;;;;;11.52;2.05;;;;;;;;;;5049586;28;20120;-65
2022/01/06 07:26:38;;;;;;;12.43;2.50;;;;;;;;;;5051759;28;20037;-65
2022/01/06 07:29:04;;;;;;;13.45;2.30;;;;;;;;;;5055431;28;20106;-65
2022/01/06 07:31:30;;;;;;;17.48;2.42;;;;;;;;;;5051383;28;20041;-65
2022/01/06 07:33:56;;;;;;;13.65;2.83;;;;;;;;;;5050744;28;20059;-65
2022/01/06 07:36:22;;;;;;;19.13;2.60;;;;;;;;;;5049808;28;20449;-66
2022/01/06 07:38:48;;;;;;;12.35;2.28;;;;;;;;;;5059321;28;20116;-65
2022/01/06 07:41:16;;;;;;;15.82;2.38;;;;;;;;;;5049184;28;20060;-65
2022/01/06 07:43:42;;;;;;;12.88;2.45;;;;;;;;;;5048805;28;20045;-65
2022/01/06 07:46:08;;;;;;;13.88;2.30;;;;;;;;;;5048383;28;20037;-65
2022/01/06 07:49:16;;;;;;;15.32;2.45;;;;;;;;;;5053178;28;20128;-65
2022/01/06 07:51:27;;;;;;;14.57;2.42;;;;;;;;;;5041131;28;20048;-65
2022/01/06 07:53:53;;;;;;;17.92;2.65;;;;;;;;;;5049697;28;20045;-65
2022/01/06 07:56:19;;;;;;;11.85;2.30;;;;;;;;;;5053206;28;20048;-65
2022/01/06 07:58:45;;;;;;;15.68;2.80;;;;;;;;;;5054613;28;20045;-66
2022/01/06 08:01:11;;;;;;;13.90;2.38;;;;;;;;;;5054730;28;20418;-65
2022/01/06 08:03:38;;;;;;;16.25;2.40;;;;;;;;;;5054348;28;20072;-65
2022/01/06 08:06:05;;;;;;;13.35;2.35;;;;;;;;;;5052586;28;20064;-66
2022/01/06 08:08:31;;;;;;;9.65;2.60;;;;;;;;;;5066202;28;20120;-66
2022/01/06 08:10:57;;;;;;;11.90;2.25;;;;;;;;;;5054359;28;20071;-66
2022/01/06 08:13:23;;;;;;;13.27;2.63;;;;;;;;;;5053807;28;20044;-66
2022/01/06 08:15:49;;;;;;;14.57;2.92;;;;;;;;;;5049559;28;20037;-66
2022/01/06 08:18:15;;;;;;;16.42;3.42;;;;;;;;;;5051296;28;20043;-67
2022/01/06 08:20:40;;;;;;;16.25;2.80;;;;;;;;;;5051944;28;20041;-66
2022/01/06 08:23:07;;;;;;;9.50;2.10;;;;;;;;;;5054286;28;20037;-66
2022/01/06 08:25:33;;;;;;;12.73;2.90;;;;;;;;;;5053044;28;20394;-67
2022/01/06 08:27:59;;;;;;;12.93;2.58;;;;;;;;;;5060573;28;20066;-66
2022/01/06 08:30:25;;;;;;;15.50;2.67;;;;;;;;;;5054285;28;20036;-67
2022/01/06 08:32:51;;;;;;;22.40;3.15;;;;;;;;;;5054207;28;20041;-66
2022/01/06 08:35:17;;;;;;;17.50;3.17;;;;;;;;;;5052717;28;20376;-66
2022/01/06 08:37:43;;;;;;;19.20;2.67;;;;;;;;;;5055656;28;20044;-66
2022/01/06 08:40:10;;;;;;;19.85;2.70;;;;;;;;;;5053265;28;20041;-66
2022/01/06 08:42:36;;;;;;;9.45;2.15;;;;;;;;;;5054231;28;20045;-66
2022/01/06 08:45:02;;;;;;;16.17;3.03;;;;;;;;;;5052460;28;20108;-66
2022/01/06 08:47:29;;;;;;;14.35;2.50;;;;;;;;;;5056132;28;20143;-66
2022/01/06 08:49:55;;;;;;;15.57;2.92;;;;;;;;;;5053076;28;20098;-66
2022/01/06 08:52:22;;;;;;;15.82;3.28;;;;;;;;;;5053468;28;20048;-66
2022/01/06 08:54:48;;;;;;;13.60;3.38;;;;;;;;;;5053616;28;20290;-66
2022/01/06 08:57:14;;;;;;;12.75;2.90;;;;;;;;;;5065545;28;20033;-66
2022/01/06 08:59:40;;;;;;;15.90;3.03;;;;;;;;;;5056276;28;20453;-66
2022/01/06 09:02:06;;;;;;;10.60;2.72;;;;;;;;;;5053594;28;20029;-66
2022/01/06 09:04:32;;;;;;;16.38;3.20;;;;;;;;;;5053855;28;20052;-66
2022/01/06 09:06:59;;;;;;;15.27;3.15;;;;;;;;;;5050913;28;20049;-66
2022/01/06 09:09:25;;;;;;;15.30;2.90;;;;;;;;;;5053561;28;20128;-67
2022/01/06 09:11:51;;;;;;;11.40;2.90;;;;;;;;;;5051724;28;20045;-66
2022/01/06 09:14:18;;;;;;;12.80;3.10;;;;;;;;;;5050052;28;20045;-66
2022/01/06 09:16:44;;;;;;;16.08;3.78;;;;;;;;;;5051504;28;20414;-66
2022/01/06 09:19:09;;;;;;;15.18;3.22;;;;;;;;;;5056547;28;20491;-66
2022/01/06 09:21:36;;;;;;;15.07;3.72;;;;;;;;;;5053343;28;20075;-66
2022/01/06 09:24:06;;;;;;;21.10;3.83;;;;;;;;;;5055219;28;20040;-66
2022/01/06 09:26:32;;;;;;;10.50;3.47;;;;;;;;;;5052923;28;20044;-66
2022/01/06 09:28:58;;;;;;;15.52;3.50;;;;;;;;;;5052949;28;20536;-66
2022/01/06 09:31:24;;;;;;;20.20;4.20;;;;;;;;;;5050597;28;20041;-66
2022/01/06 09:33:50;;;;;;;14.48;3.55;;;;;;;;;;5053641;28;20122;-67
2022/01/06 09:36:16;;;;;;;15.52;4.22;;;;;;;;;;5050387;28;20037;-66
2022/01/06 09:38:45;;;;;;;17.42;3.72;;;;;;;;;;5055177;28;20110;-66
2022/01/06 09:41:11;;;;;;;14.02;3.72;;;;;;;;;;5046401;28;20036;-66
2022/01/06 09:43:37;;;;;;;16.77;3.72;;;;;;;;;;5055785;28;20033;-66
2022/01/06 09:46:06;;;;;;;11.13;3.47;;;;;;;;;;5051879;28;20135;-66
2022/01/06 09:48:34;;;;;;;22.25;3.88;;;;;;;;;;5063125;28;20499;-66
2022/01/06 09:51:00;;;;;;;16.80;2.85;;;;;;;;;;5045173;28;20036;-66
2022/01/06 09:53:26;;;;;;;18.17;3.20;;;;;;;;;;5052412;28;20041;-67
2022/01/06 09:55:53;;;;;;;16.08;3.67;;;;;;;;;;5047227;28;20095;-66
2022/01/06 09:58:22;;;;;;;23.17;3.60;;;;;;;;;;5051261;28;20467;-66
2022/01/06 10:00:48;;;;;;;14.13;3.15;;;;;;;;;;5049766;28;20083;-66
2022/01/06 10:03:15;;;;;;;15.50;3.50;;;;;;;;;;5044604;28;20030;-67
2022/01/06 10:05:42;;;;;;;19.58;3.88;;;;;;;;;;5047367;28;20048;-67
2022/01/06 10:08:09;;;;;;;18.83;3.25;;;;;;;;;;5060820;28;20055;-66
2022/01/06 10:10:35;;;;;;;16.75;3.35;;;;;;;;;;5047306;28;20056;-66
2022/01/06 10:13:06;;;;;;;19.10;4.22;;;;;;;;;;5048310;28;20041;-68
2022/01/06 10:15:33;;;;;;;17.05;3.20;;;;;;;;;;5045605;28;20080;-67
2022/01/06 10:18:09;;;;;;;17.27;4.25;;;;;;;;;;5050553;28;20055;-67
2022/01/06 10:20:35;;;;;;;20.90;4.10;;;;;;;;;;5049039;28;20486;-67
2022/01/06 10:23:01;;;;;;;19.40;3.75;;;;;;;;;;5051511;28;20098;-67
2022/01/06 10:25:30;;;;;;;13.40;3.45;;;;;;;;;;5050849;28;20037;-67
2022/01/06 10:27:56;;;;;;;17.17;3.90;;;;;;;;;;5054845;22;20056;-66
2022/01/06 10:30:23;;;;;;;17.02;3.80;;;;;;;;;;5063082;28;20079;-66
2022/01/06 10:32:49;;;;;;;23.10;4.75;;;;;;;;;;5054237;28;20119;-66
2022/01/06 10:35:17;;;;;;;17.08;3.63;;;;;;;;;;5071620;28;20486;-66
2022/01/06 10:37:44;;;;;;;18.55;3.70;;;;;;;;;;5066434;28;20040;-66
2022/01/06 10:40:18;;;;;;;16.00;4.00;;;;;;;;;;5052403;28;20033;-66
2022/01/06 10:42:47;;;;;;;20.30;3.88;;;;;;;;;;5042409;28;20056;-66
2022/01/06 10:45:16;;;;;;;19.52;4.57;;;;;;;;;;5043467;28;20545;-66
2022/01/06 10:47:44;;;;;;;21.40;4.00;;;;;;;;;;5027801;28;20487;-66
2022/01/06 10:50:16;;;;;;;15.40;3.65;;;;;;;;;;5034480;28;20507;-66
2022/01/06 10:52:43;;;;;;;15.20;3.45;;;;;;;;;;5033681;28;20127;-67
2022/01/06 10:55:15;;;;;;;20.70;3.65;;;;;;;;;;5051376;28;20089;-67
2022/01/06 10:57:55;;;;;;;13.77;3.85;;;;;;;;;;5051090;28;20714;-66
2022/01/06 11:00:24;;;;;;;17.25;3.65;;;;;;;;;;5011544;22;20077;-75
2022/01/06 11:02:50;;;;;;;18.13;3.20;;;;;;;;;;4988306;28;20129;-74
2022/01/06 11:05:16;;;;;;;21.13;3.70;;;;;;;;;;4988007;28;20069;-74
2022/01/06 11:07:42;;;;;;;17.40;3.70;;;;;;;;;;4982852;28;20043;-79
2022/01/06 11:10:15;;;;;;;19.05;3.90;;;;;;;;;;4971606;28;20039;-74
2022/01/06 11:12:42;;;;;;;16.00;3.35;;;;;;;;;;4978025;28;20118;-74
2022/01/06 11:15:08;;;;;;;20.65;4.07;;;;;;;;;;5000310;28;20070;-77
2022/01/06 11:17:35;;;;;;;19.85;3.17;;;;;;;;;;4977203;28;20042;-74
2022/01/06 11:20:01;;;;;;;15.45;3.30;;;;;;;;;;4969774;28;20039;-75
2022/01/06 11:22:27;;;;;;;18.20;3.22;;;;;;;;;;4984858;28;20562;-75
2022/01/06 11:24:54;;;;;;;16.25;3.83;;;;;;;;;;5007810;28;20438;-74
2022/01/06 11:27:30;;;;;;;17.48;3.47;;;;;;;;;;4965778;28;20054;-74
2022/01/06 11:30:07;;;;;;;14.98;3.63;;;;;;;;;;4970144;28;20050;-75
2022/01/06 11:32:33;;;;;;;20.77;3.25;;;;;;;;;;4990261;28;20124;-75
2022/01/06 11:35:02;;;;;;;18.95;4.10;;;;;;;;;;5007627;28;20039;-74
2022/01/06 11:37:39;;;;;;;16.92;4.20;;;;;;;;;;5008802;28;20089;-74
2022/01/06 11:40:05;;;;;;;14.98;3.50;;;;;;;;;;4980205;28;20130;-75
2022/01/06 11:42:31;;;;;;;20.45;3.40;;;;;;;;;;4989915;28;20045;-74
2022/01/06 11:44:58;;;;;;;15.77;3.53;;;;;;;;;;4969115;28;20043;-76
2022/01/06 11:47:31;;;;;;;18.63;3.55;;;;;;;;;;5053599;28;20506;-75
2022/01/06 11:50:07;;;;;;;19.52;3.78;;;;;;;;;;4999624;28;20054;-76
2022/01/06 11:52:33;;;;;;;13.93;3.50;;;;;;;;;;4970487;28;20031;-75
2022/01/06 11:54:59;;;;;;;15.20;3.15;;;;;;;;;;4987576;28;20179;-75
2022/01/06 11:57:32;;;;;;;19.30;3.20;;;;;;;;;;4967543;28;20121;-74
2022/01/06 12:00:00;;;;;;;16.70;4.50;;;;;;;;;;5001384;28;20036;-74
2022/01/06 12:02:26;;;;;;;17.88;3.08;;;;;;;;;;4978042;28;20043;-74
2022/01/06 12:04:59;;;;;;;15.25;3.17;;;;;;;;;;4969463;28;20039;-74
2022/01/06 12:07:26;;;;;;;14.90;3.20;;;;;;;;;;4969228;28;20043;-74
2022/01/06 12:09:56;;;;;;;15.73;3.13;;;;;;;;;;4969357;28;20504;-74
2022/01/06 12:12:31;;;;;;;18.92;2.97;;;;;;;;;;4970209;28;20689;-74
2022/01/06 12:15:15;;;;;;;16.90;3.58;;;;;;;;;;4969713;28;20053;-74
2022/01/06 12:17:44;;;;;;;14.77;3.00;;;;;;;;;;4969251;28;20050;-74
2022/01/06 12:20:10;;;;;;;16.50;3.25;;;;;;;;;;4969731;28;20043;-74
2022/01/06 12:22:36;;;;;;;14.75;3.10;;;;;;;;;;4970087;28;20203;-74
2022/01/06 12:25:06;;;;;;;14.23;2.80;;;;;;;;;;4970220;28;20031;-74
2022/01/06 12:27:34;;;;;;;19.33;3.42;;;;;;;;;;4969999;28;20173;-73
2022/01/06 12:30:04;;;;;;;16.27;3.13;;;;;;;;;;4971201;28;20042;-73
2022/01/06 12:32:30;;;;;;;16.17;3.03;;;;;;;;;;5034102;28;20078;-74
2022/01/06 12:34:56;;;;;;;17.10;2.92;;;;;;;;;;4969401;28;20132;-73
2022/01/06 12:37:29;;;;;;;16.08;2.63;;;;;;;;;;4969433;28;20046;-73
2022/01/06 12:39:56;;;;;;;15.15;3.30;;;;;;;;;;4969108;28;20039;-74
2022/01/06 12:42:22;;;;;;;20.83;3.10;;;;;;;;;;4969062;28;20042;-74
2022/01/06 12:44:48;;;;;;;9.93;2.30;;;;;;;;;;4973369;28;20519;-73
2022/01/06 12:47:14;;;;;;;14.57;3.00;;;;;;;;;;4972486;28;20038;-74
2022/01/06 12:49:40;;;;;;;16.67;3.22;;;;;;;;;;4972313;28;20084;-73
2022/01/06 12:52:07;;;;;;;16.88;3.38;;;;;;;;;;4972280;28;20046;-73
2022/01/06 12:54:34;;;;;;;12.43;2.65;;;;;;;;;;4967735;28;20085;-74
2022/01/06 12:57:02;;;;;;;17.33;2.65;;;;;;;;;;4972159;28;20054;-73
2022/01/06 12:59:35;;;;;;;14.65;2.80;;;;;;;;;;4972125;28;20496;-73
2022/01/06 13:02:02;;;;;;;12.45;2.47;;;;;;;;;;4979398;28;20087;-73
2022/01/06 13:04:29;;;;;;;22.67;3.25;;;;;;;;;;4972270;28;20438;-73
2022/01/06 13:06:56;;;;;;;15.38;3.25;;;;;;;;;;4971955;28;20377;-73
2022/01/06 13:09:23;;;;;;;11.32;2.85;;;;;;;;;;4972479;28;20125;-73
2022/01/06 13:11:52;;;;;;;17.85;3.03;;;;;;;;;;4972463;28;20047;-73
2022/01/06 13:14:44;;;;;;;10.90;3.00;;;;;;;;;;4972801;28;20118;-73
2022/01/06 13:17:12;;;;;;;21.08;3.65;;;;;;;;;;4955043;28;20047;-73
2022/01/06 13:20:00;;;;;;;14.93;3.28;;;;;;;;;;4952804;29;20112;-73
2022/01/06 13:22:36;;;;;;;23.58;3.50;;;;;;;;;;4959755;28;20054;-73
2022/01/06 13:25:12;;;;;;;15.90;3.22;;;;;;;;;;4972519;28;20047;-73
2022/01/06 13:27:38;;;;;;;14.10;2.90;;;;;;;;;;4971994;28;20046;-73
2022/01/06 13:30:04;;;;;;;19.33;3.20;;;;;;;;;;5030977;28;20444;-73
2022/01/06 13:32:31;;;;;;;20.65;3.70;;;;;;;;;;4971739;28;20128;-73
2022/01/06 13:35:05;;;;;;;15.63;3.67;;;;;;;;;;4971665;28;20050;-72
2022/01/06 13:37:32;;;;;;;15.48;3.10;;;;;;;;;;4972444;28;20046;-73
2022/01/06 13:40:06;;;;;;;14.65;3.75;;;;;;;;;;4971587;28;20039;-73
2022/01/06 13:42:34;;;;;;;13.75;2.85;;;;;;;;;;4971748;28;20042;-73
2022/01/06 13:45:15;;;;;;;15.90;3.58;;;;;;;;;;5026271;28;20489;-73
2022/01/06 13:53:00;;;;;;;14.57;2.80;;;;;;;;;;4971334;28;20176;-73
2022/01/06 13:55:26;;;;;;;16.25;3.63;;;;;;;;;;4969045;28;20126;-73
2022/01/06 13:57:52;;;;;;;16.25;2.95;;;;;;;;;;4985792;28;20092;-72
2022/01/06 14:00:18;;;;;;;22.70;3.55;;;;;;;;;;5072902;28;20032;-73
2022/01/06 14:02:45;;;;;;;15.25;3.10;;;;;;;;;;4978013;28;20035;-73
2022/01/06 14:05:11;;;;;;;13.82;3.35;;;;;;;;;;4971027;28;20043;-73
2022/01/06 14:07:38;;;;;;;14.82;3.47;;;;;;;;;;4971296;28;20420;-73
2022/01/06 14:10:05;;;;;;;18.05;3.47;;;;;;;;;;4971034;28;20058;-73
2022/01/06 14:12:31;;;;;;;16.55;3.72;;;;;;;;;;4973244;28;20082;-73
2022/01/06 14:14:58;;;;;;;15.23;3.30;;;;;;;;;;4971812;28;20074;-73
2022/01/06 14:17:24;;;;;;;18.63;3.47;;;;;;;;;;4971732;28;20046;-72
2022/01/06 14:19:50;;;;;;;16.90;3.70;;;;;;;;;;4970498;28;20058;-72
2022/01/06 14:22:16;;;;;;;12.70;2.50;;;;;;;;;;4970743;28;20074;-73
2022/01/06 14:24:42;;;;;;;19.13;3.03;;;;;;;;;;4970727;28;20035;-72
2022/01/06 14:27:08;;;;;;;20.42;2.72;;;;;;;;;;5012861;28;20055;-72
2022/01/06 14:29:34;;;;;;;19.67;3.50;;;;;;;;;;4981654;28;20118;-72
2022/01/06 14:32:00;;;;;;;14.35;2.95;;;;;;;;;;4970816;28;20085;-72
2022/01/06 14:34:26;;;;;;;17.17;3.58;;;;;;;;;;4970577;28;20073;-72
2022/01/06 14:36:52;;;;;;;13.68;3.10;;;;;;;;;;4970323;28;20510;-73
2022/01/06 14:39:19;;;;;;;18.00;4.13;;;;;;;;;;4970659;28;20049;-72
2022/01/06 14:41:45;;;;;;;15.63;2.92;;;;;;;;;;5004893;28;20089;-73
2022/01/06 14:44:11;;;;;;;19.27;3.67;;;;;;;;;;5014745;28;20046;-73
2022/01/06 14:46:37;;;;;;;19.33;3.08;;;;;;;;;;4970418;28;20427;-73